createdAt,value
2024-02-12T00:00:51.181Z,8.57
2024-02-12T00:06:19.235Z,8.60
2024-02-12T00:11:25.672Z,8.58
2024-02-12T00:16:31.619Z,8.58
2024-02-12T00:21:37.740Z,8.59
2024-02-12T00:26:43.353Z,8.59
2024-02-12T00:31:49.251Z,8.56
2024-02-12T00:36:55.128Z,8.54
2024-02-12T00:42:00.892Z,8.55
2024-02-12T00:47:06.915Z,8.56
2024-02-12T00:52:13.020Z,8.53
2024-02-12T00:57:18.576Z,8.48
2024-02-12T01:02:24.422Z,8.48
2024-02-12T01:07:30.923Z,8.50
2024-02-12T01:12:37.296Z,8.53
2024-02-12T01:17:47.173Z,8.54
2024-02-12T01:22:57.744Z,8.52
2024-02-12T01:28:03.973Z,8.52
2024-02-12T01:33:09.777Z,8.49
2024-02-12T01:38:16.031Z,8.46
2024-02-12T01:43:32.833Z,8.47
2024-02-12T01:48:39.866Z,8.49
2024-02-12T01:53:49.107Z,8.47
2024-02-12T01:58:58.798Z,8.45
2024-02-12T02:04:08.288Z,8.44
2024-02-12T02:09:15.688Z,8.44
2024-02-12T02:14:21.552Z,8.44
2024-02-12T02:19:27.863Z,8.41
2024-02-12T02:24:33.542Z,8.41
2024-02-12T02:29:39.853Z,8.42
2024-02-12T02:34:47.752Z,8.45
2024-02-12T02:39:53.778Z,8.44
2024-02-12T02:44:59.609Z,8.43
2024-02-12T02:50:06.258Z,8.44
2024-02-12T02:55:13.184Z,8.48
2024-02-12T03:00:19.887Z,8.48
2024-02-12T03:05:29.734Z,8.44
2024-02-12T03:10:35.681Z,8.48
2024-02-12T03:15:41.441Z,8.51
2024-02-12T03:20:47.227Z,8.57
2024-02-12T03:25:53.090Z,8.57
2024-02-12T03:30:59.121Z,8.58
2024-02-12T03:36:06.349Z,8.59
2024-02-12T03:41:25.859Z,8.61
2024-02-12T03:46:37.146Z,8.60
2024-02-12T03:52:01.832Z,8.57
2024-02-12T03:57:28.775Z,8.54
2024-02-12T04:02:36.974Z,8.54
2024-02-12T04:07:43.021Z,8.53
2024-02-12T04:12:50.033Z,8.48
2024-02-12T04:17:57.263Z,8.46
2024-02-12T04:23:03.312Z,8.48
2024-02-12T04:28:11.599Z,8.50
2024-02-12T04:33:18.158Z,8.52
2024-02-12T04:38:24.012Z,8.49
2024-02-12T04:43:29.882Z,8.46
2024-02-12T04:48:35.630Z,8.49
2024-02-12T04:53:41.640Z,8.54
2024-02-12T04:58:47.304Z,8.54
2024-02-12T05:03:53.545Z,8.51
2024-02-12T05:09:01.293Z,8.48
2024-02-12T05:14:08.691Z,8.49
2024-02-12T05:19:35.293Z,8.51
2024-02-12T05:24:41.472Z,8.49
2024-02-12T05:29:47.056Z,8.48
2024-02-12T05:34:55.890Z,8.47
2024-02-12T05:40:03.269Z,8.49
2024-02-12T05:45:11.206Z,8.49
2024-02-12T05:50:18.495Z,8.48
2024-02-12T05:55:24.246Z,8.47
2024-02-12T06:00:29.881Z,8.48
2024-02-12T06:05:35.791Z,8.48
2024-02-12T06:10:41.449Z,8.48
2024-02-12T06:15:47.180Z,8.45
2024-02-12T06:20:52.880Z,8.46
2024-02-12T06:25:59.878Z,8.48
2024-02-12T06:31:05.726Z,8.45
2024-02-12T06:36:11.624Z,8.46
2024-02-12T06:41:17.359Z,8.50
2024-02-12T06:46:24.148Z,8.54
2024-02-12T06:51:29.810Z,8.53
2024-02-12T06:56:40.783Z,8.57
2024-02-12T07:01:46.432Z,8.63
2024-02-12T07:06:51.969Z,8.66
2024-02-12T07:11:57.874Z,8.69
2024-02-12T07:17:03.674Z,8.72
2024-02-12T07:22:09.518Z,8.76
2024-02-12T07:27:15.064Z,8.81
2024-02-12T07:32:21.037Z,8.94
2024-02-12T07:37:26.961Z,9.02
2024-02-12T07:42:32.716Z,9.01
2024-02-12T07:47:39.189Z,8.97
2024-02-12T07:52:45.045Z,8.98
2024-02-12T07:57:50.997Z,9.03
2024-02-12T08:02:56.581Z,9.05
2024-02-12T08:08:04.160Z,9.05
2024-02-12T08:13:10.282Z,9.05
2024-02-12T08:18:16.444Z,9.11
2024-02-12T08:23:23.875Z,9.09
2024-02-12T08:28:30.437Z,9.05
2024-02-12T08:33:38.055Z,9.07
2024-02-12T08:38:44.199Z,9.18
2024-02-12T08:43:50.331Z,9.19
2024-02-12T08:48:56.303Z,9.21
2024-02-12T08:54:02.049Z,9.23
2024-02-12T08:59:08.332Z,9.16
2024-02-12T09:04:14.508Z,9.07
2024-02-12T09:09:21.469Z,9.01
2024-02-12T09:14:28.065Z,9.01
2024-02-12T09:19:34.342Z,8.99
2024-02-12T09:24:42.292Z,8.96
2024-02-12T09:29:49.067Z,8.97
2024-02-12T09:34:57.192Z,8.98
2024-02-12T09:40:04.389Z,9.00
2024-02-12T09:45:12.806Z,9.01
2024-02-12T09:50:19.259Z,9.04
2024-02-12T09:55:26.394Z,9.03
2024-02-12T10:00:32.310Z,9.01
2024-02-12T10:05:40.004Z,9.07
2024-02-12T10:10:45.704Z,9.18
2024-02-12T10:15:56.996Z,9.26
2024-02-12T10:21:05.709Z,9.31
2024-02-12T10:26:11.650Z,9.36
2024-02-12T10:31:19.968Z,9.43
2024-02-12T10:36:32.284Z,9.40
2024-02-12T10:41:45.733Z,9.46
2024-02-12T10:46:52.754Z,9.48
2024-02-12T10:52:00.659Z,9.40
2024-02-12T10:57:09.639Z,9.36
2024-02-12T11:02:16.342Z,9.34
2024-02-12T11:07:28.966Z,9.29
2024-02-12T11:12:41.077Z,9.26
2024-02-12T11:17:48.280Z,9.25
2024-02-12T11:22:56.513Z,9.31
2024-02-12T11:28:02.618Z,9.39
2024-02-12T11:33:12.011Z,9.42
2024-02-12T11:38:18.569Z,9.46
2024-02-12T11:43:24.337Z,9.46
2024-02-12T11:48:30.866Z,9.45
2024-02-12T11:53:40.678Z,9.42
2024-02-12T11:58:46.394Z,9.36
2024-02-12T12:03:53.322Z,9.38
2024-02-12T12:08:59.807Z,9.45
2024-02-12T12:14:06.727Z,9.52
2024-02-12T12:19:12.492Z,9.63
2024-02-12T12:24:18.919Z,9.68
2024-02-12T12:29:28.178Z,9.70
2024-02-12T12:34:34.691Z,9.73
2024-02-12T12:39:40.294Z,9.76
2024-02-12T12:44:46.898Z,9.81
2024-02-12T12:49:55.824Z,9.84
2024-02-12T12:55:01.714Z,9.90
2024-02-12T13:00:19.830Z,9.93
2024-02-12T13:05:26.680Z,9.91
2024-02-12T13:10:41.569Z,9.94
2024-02-12T13:15:48.293Z,9.99
2024-02-12T13:20:54.517Z,9.95
2024-02-12T13:26:04.804Z,9.81
2024-02-12T13:31:14.585Z,9.72
2024-02-12T13:36:22.741Z,9.71
2024-02-12T13:41:29.323Z,9.70
2024-02-12T13:46:37.654Z,9.68
2024-02-12T13:51:44.742Z,9.70
2024-02-12T13:56:51.361Z,9.65
2024-02-12T14:02:03.279Z,9.55
2024-02-12T14:07:14.684Z,9.44
2024-02-12T14:12:21.653Z,9.35
2024-02-12T14:17:27.789Z,9.36
2024-02-12T14:22:34.917Z,9.34
2024-02-12T14:27:41.013Z,9.27
2024-02-12T14:32:47.939Z,9.20
2024-02-12T14:37:57.408Z,9.19
2024-02-12T14:43:03.302Z,9.15
2024-02-12T14:48:10.029Z,9.09
2024-02-12T14:53:22.171Z,9.05
2024-02-12T14:58:28.518Z,9.02
2024-02-12T15:03:34.207Z,8.99
2024-02-12T15:08:42.484Z,8.95
2024-02-12T15:13:48.517Z,8.96
2024-02-12T15:18:54.594Z,8.94
2024-02-12T15:24:00.835Z,8.87
2024-02-12T15:29:06.634Z,8.82
2024-02-12T15:34:12.507Z,8.78
2024-02-12T15:39:18.726Z,8.74
2024-02-12T15:44:24.782Z,8.68
2024-02-12T15:49:30.799Z,8.65
2024-02-12T15:54:44.301Z,8.66
2024-02-12T15:59:50.938Z,8.64
2024-02-12T16:04:56.533Z,8.60
2024-02-12T16:10:03.425Z,8.58
2024-02-12T16:15:10.662Z,8.59
2024-02-12T16:20:16.385Z,8.60
2024-02-12T16:25:22.003Z,8.57
2024-02-12T16:30:28.714Z,8.55
2024-02-12T16:35:36.298Z,8.54
2024-02-12T16:40:43.326Z,8.48
2024-02-12T16:45:49.119Z,8.43
2024-02-12T16:50:55.287Z,8.42
2024-02-12T16:56:02.258Z,8.40
2024-02-12T17:01:10.608Z,8.37
2024-02-12T17:06:23.094Z,8.37
2024-02-12T17:11:30.884Z,8.34
2024-02-12T17:16:42.566Z,8.24
2024-02-12T17:21:51.351Z,8.12
2024-02-12T17:26:57.894Z,8.06
2024-02-12T17:32:05.262Z,7.98
2024-02-12T17:37:12.026Z,7.96
2024-02-12T17:42:18.992Z,7.98
2024-02-12T17:47:25.774Z,7.96
2024-02-12T17:52:32.784Z,7.94
2024-02-12T17:57:38.808Z,7.93
2024-02-12T18:02:44.726Z,7.96
2024-02-12T18:07:50.782Z,7.92
2024-02-12T18:12:57.672Z,7.85
2024-02-12T18:18:05.587Z,7.76
2024-02-12T18:23:14.638Z,7.69
2024-02-12T18:28:20.439Z,7.64
2024-02-12T18:33:26.348Z,7.56
2024-02-12T18:38:32.097Z,7.48
2024-02-12T18:43:37.734Z,7.42
2024-02-12T18:48:45.024Z,7.41
2024-02-12T18:53:51.509Z,7.39
2024-02-12T18:58:57.754Z,7.33
2024-02-12T19:04:03.633Z,7.32
2024-02-12T19:09:11.246Z,7.31
2024-02-12T19:14:17.574Z,7.31
2024-02-12T19:19:23.916Z,7.29
2024-02-12T19:24:30.081Z,7.28
2024-02-12T19:29:36.214Z,7.30
2024-02-12T19:34:41.929Z,7.30
2024-02-12T19:39:50.275Z,7.27
2024-02-12T19:45:00.579Z,7.24
2024-02-12T19:50:07.619Z,7.22
2024-02-12T19:55:13.424Z,7.18
2024-02-12T20:00:19.405Z,7.12
2024-02-12T20:05:25.457Z,7.06
2024-02-12T20:10:31.570Z,7.05
2024-02-12T20:15:37.964Z,7.09
2024-02-12T20:20:43.936Z,7.13
2024-02-12T20:25:51.183Z,7.12
2024-02-12T20:30:56.978Z,7.10
2024-02-12T20:36:02.927Z,7.07
2024-02-12T20:41:10.782Z,7.06
2024-02-12T20:46:16.683Z,7.04
2024-02-12T20:51:24.237Z,7.00
2024-02-12T20:56:33.977Z,6.96
2024-02-12T21:01:45.516Z,6.98
2024-02-12T21:06:51.681Z,6.96
2024-02-12T21:11:59.429Z,6.90
2024-02-12T21:17:05.824Z,6.88
2024-02-12T21:22:11.730Z,6.90
2024-02-12T21:27:17.732Z,6.91
2024-02-12T21:32:27.421Z,6.91
2024-02-12T21:37:35.352Z,6.92
2024-02-12T21:42:41.541Z,6.97
2024-02-12T21:47:48.362Z,7.00
2024-02-12T21:52:57.093Z,7.00
2024-02-12T21:58:03.077Z,7.03
2024-02-12T22:03:08.709Z,7.09
2024-02-12T22:08:16.501Z,7.13
2024-02-12T22:13:22.862Z,7.15
2024-02-12T22:18:29.347Z,7.16
2024-02-12T22:23:35.567Z,7.20
2024-02-12T22:28:41.556Z,7.23
2024-02-12T22:33:47.594Z,7.23
2024-02-12T22:38:53.727Z,7.24
2024-02-12T22:43:59.735Z,7.25
2024-02-12T22:49:07.385Z,7.20
2024-02-12T22:54:13.371Z,7.12
2024-02-12T22:59:19.625Z,7.06
2024-02-12T23:04:26.426Z,7.04
2024-02-12T23:09:33.152Z,7.03
2024-02-12T23:14:39.043Z,6.96
2024-02-12T23:19:45.446Z,6.94
2024-02-12T23:24:52.180Z,6.96
2024-02-12T23:29:58.022Z,6.94
2024-02-12T23:35:04.509Z,6.91
2024-02-12T23:40:11.246Z,6.90
2024-02-12T23:45:17.245Z,6.93
2024-02-12T23:50:23.086Z,6.95
2024-02-12T23:55:33.173Z,6.93
